Time;durP1;ratioP1;P1;durP2;ratioP2;P2;SDS_P1;SDS_P2;PMS_P1;PMS_P2;Temp;Humidity;BMP_temperature;BMP_pressure;BME280_temperature;BME280_humidity;BME280_pressure;Samples;Min_cycle;Max_cycle;Signal;HPM_P1;HPM_P2
2021/03/08 06:01:03;;;;;;;1.15;1.05;;;;;;;;;;5069997;27;20349;-61
2021/03/08 06:03:41;;;;;;;4.03;1.45;;;;;;;;;;5051839;28;20033;-62
2021/03/08 06:06:33;;;;;;;0.40;0.40;;;;;;;;;;5045815;28;20033;-62
2021/03/08 06:08:59;;;;;;;0.40;0.40;;;;;;;;;;5024894;28;20045;-62
2021/03/08 06:11:26;;;;;;;0.95;0.85;;;;;;;;;;5023355;28;20045;-61
2021/03/08 06:13:54;;;;;;;1.60;1.50;;;;;;;;;;5025956;28;20125;-60
2021/03/08 06:16:24;;;;;;;2.40;2.03;;;;;;;;;;5025647;28;20053;-61
2021/03/08 06:18:51;;;;;;;0.40;0.40;;;;;;;;;;5024999;28;20041;-61
2021/03/08 06:21:17;;;;;;;0.30;0.30;;;;;;;;;;5024770;28;20092;-62
2021/03/08 06:23:45;;;;;;;0.43;0.43;;;;;;;;;;5023722;28;20034;-61
2021/03/08 06:26:12;;;;;;;0.57;0.57;;;;;;;;;;5024396;28;20062;-61
2021/03/08 06:28:38;;;;;;;3.35;0.95;;;;;;;;;;5025424;28;20053;-61
2021/03/08 06:31:05;;;;;;;0.90;0.75;;;;;;;;;;5022586;28;20057;-61
2021/03/08 06:33:31;;;;;;;0.30;0.30;;;;;;;;;;5024310;28;20558;-59
2021/03/08 06:36:01;;;;;;;3.67;1.60;;;;;;;;;;5023779;28;20057;-61
2021/03/08 06:38:31;;;;;;;0.32;0.32;;;;;;;;;;5024197;28;20120;-61
2021/03/08 06:40:58;;;;;;;0.30;0.30;;;;;;;;;;5024118;28;20399;-61
2021/03/08 06:43:26;;;;;;;3.45;1.08;;;;;;;;;;5026948;28;20546;-61
2021/03/08 06:45:52;;;;;;;0.20;0.20;;;;;;;;;;5043581;28;20574;-61
2021/03/08 06:48:18;;;;;;;2.05;1.95;;;;;;;;;;5051534;28;20039;-61
2021/03/08 06:50:44;;;;;;;0.30;0.30;;;;;;;;;;5044752;28;20057;-61
2021/03/08 06:53:10;;;;;;;0.47;0.47;;;;;;;;;;5044828;28;20038;-61
2021/03/08 06:55:37;;;;;;;0.20;0.20;;;;;;;;;;5046985;28;20102;-61
2021/03/08 06:58:19;;;;;;;0.20;0.20;;;;;;;;;;5041704;28;20022;-61
2021/03/08 07:00:45;;;;;;;0.15;0.15;;;;;;;;;;5034445;28;20056;-61
2021/03/08 07:03:33;;;;;;;0.57;0.57;;;;;;;;;;5030377;28;20032;-60
2021/03/08 07:06:15;;;;;;;0.52;0.52;;;;;;;;;;5030577;28;20487;-61
2021/03/08 07:08:42;;;;;;;0.30;0.30;;;;;;;;;;5030972;28;20041;-61
2021/03/08 07:11:17;;;;;;;4.38;3.40;;;;;;;;;;5030011;28;20025;-61
2021/03/08 07:13:43;;;;;;;0.52;0.52;;;;;;;;;;5031144;28;20499;-61
2021/03/08 07:16:09;;;;;;;0.95;0.90;;;;;;;;;;5032482;28;20037;-61
2021/03/08 07:18:36;;;;;;;1.23;1.15;;;;;;;;;;5029173;28;20025;-61
2021/03/08 07:21:15;;;;;;;1.38;1.13;;;;;;;;;;5028423;28;20451;-61
2021/03/08 07:23:41;;;;;;;0.50;0.50;;;;;;;;;;5033586;28;20021;-61
2021/03/08 07:26:15;;;;;;;0.43;0.38;;;;;;;;;;5026488;28;20037;-61
2021/03/08 07:28:41;;;;;;;0.30;0.30;;;;;;;;;;5029493;28;20035;-61
2021/03/08 07:31:08;;;;;;;0.30;0.30;;;;;;;;;;5031397;28;20021;-61
2021/03/08 07:33:34;;;;;;;0.45;0.45;;;;;;;;;;5028921;28;20017;-61
2021/03/08 07:36:00;;;;;;;0.40;0.40;;;;;;;;;;5029335;28;20057;-61
2021/03/08 07:38:32;;;;;;;1.75;1.65;;;;;;;;;;5031089;28;20471;-62
2021/03/08 07:41:08;;;;;;;0.20;0.20;;;;;;;;;;5031486;28;20037;-61
2021/03/08 07:43:34;;;;;;;0.30;0.30;;;;;;;;;;5031718;28;20493;-61
2021/03/08 07:46:00;;;;;;;5.32;3.47;;;;;;;;;;5029365;28;20036;-61
2021/03/08 07:48:26;;;;;;;9.95;1.80;;;;;;;;;;5028390;28;20049;-60
2021/03/08 07:50:54;;;;;;;1.05;1.05;;;;;;;;;;5029096;28;20021;-60
2021/03/08 07:53:24;;;;;;;0.95;0.95;;;;;;;;;;5013464;28;20025;-60
2021/03/08 07:55:52;;;;;;;2.63;1.92;;;;;;;;;;5032233;28;20055;-59
2021/03/08 07:58:18;;;;;;;2.05;1.27;;;;;;;;;;5030125;28;20117;-61
2021/03/08 08:00:45;;;;;;;0.77;0.77;;;;;;;;;;5029023;28;20099;-61
2021/03/08 08:03:11;;;;;;;1.27;1.27;;;;;;;;;;5029468;28;20442;-60
2021/03/08 08:05:37;;;;;;;0.80;0.80;;;;;;;;;;5029342;28;20109;-61
2021/03/08 08:08:05;;;;;;;0.98;0.95;;;;;;;;;;5031389;28;20021;-60
2021/03/08 08:10:32;;;;;;;2.70;2.17;;;;;;;;;;5030489;28;20050;-60
2021/03/08 08:13:01;;;;;;;0.43;0.43;;;;;;;;;;5027870;28;20014;-61
2021/03/08 08:15:27;;;;;;;1.23;1.23;;;;;;;;;;5028217;28;20095;-60
2021/03/08 08:17:55;;;;;;;0.90;0.90;;;;;;;;;;5028450;28;20091;-61
2021/03/08 08:20:21;;;;;;;0.50;0.50;;;;;;;;;;5028343;28;20029;-60
2021/03/08 08:22:57;;;;;;;2.17;1.80;;;;;;;;;;5031925;28;20049;-60
2021/03/08 08:25:23;;;;;;;;;;;;;;;;;;5030500;28;20061;-60
2021/03/08 08:27:50;;;;;;;0.20;0.20;;;;;;;;;;5028509;28;20390;-60
2021/03/08 08:30:16;;;;;;;0.88;0.82;;;;;;;;;;5028336;28;20033;-61
2021/03/08 08:33:01;;;;;;;2.25;1.60;;;;;;;;;;5029892;28;20084;-60
2021/03/08 08:35:32;;;;;;;2.90;1.75;;;;;;;;;;5014142;28;20034;-60
2021/03/08 08:38:18;;;;;;;0.22;0.22;;;;;;;;;;5031557;28;20386;-60
2021/03/08 08:40:45;;;;;;;1.35;1.17;;;;;;;;;;5031294;28;20033;-60
2021/03/08 08:43:17;;;;;;;1.50;1.08;;;;;;;;;;5028430;28;20434;-58
2021/03/08 08:45:47;;;;;;;0.38;0.38;;;;;;;;;;5028171;28;20061;-60
2021/03/08 08:48:13;;;;;;;1.05;1.05;;;;;;;;;;5028243;28;20029;-60
2021/03/08 08:50:43;;;;;;;0.70;0.70;;;;;;;;;;5028986;28;20028;-61
2021/03/08 08:53:09;;;;;;;0.30;0.30;;;;;;;;;;5030170;28;20045;-60
2021/03/08 08:55:36;;;;;;;0.20;0.20;;;;;;;;;;5030344;28;20505;-60
2021/03/08 08:58:21;;;;;;;0.30;0.30;;;;;;;;;;5027468;28;20033;-60
2021/03/08 09:01:06;;;;;;;1.77;1.25;;;;;;;;;;5027507;28;20096;-60
2021/03/08 09:03:52;;;;;;;0.30;0.30;;;;;;;;;;5027745;28;20072;-61
2021/03/08 09:06:37;;;;;;;0.20;0.20;;;;;;;;;;5027492;28;20113;-61
2021/03/08 09:09:03;;;;;;;0.20;0.20;;;;;;;;;;5027819;28;20069;-60
2021/03/08 09:11:42;;;;;;;0.20;0.20;;;;;;;;;;5026665;28;20367;-60
2021/03/08 09:14:26;;;;;;;0.40;0.40;;;;;;;;;;5029695;28;20402;-61
2021/03/08 09:17:12;;;;;;;1.55;1.45;;;;;;;;;;5031027;28;20025;-60
2021/03/08 09:19:39;;;;;;;0.30;0.30;;;;;;;;;;5030477;28;20088;-61
2021/03/08 09:22:26;;;;;;;1.48;1.35;;;;;;;;;;5027992;28;20029;-60
2021/03/08 09:24:52;;;;;;;3.28;1.42;;;;;;;;;;5026858;28;20025;-60
2021/03/08 09:27:32;;;;;;;1.15;1.08;;;;;;;;;;5027715;28;20021;-61
2021/03/08 09:30:24;;;;;;;2.58;2.30;;;;;;;;;;5027601;28;20551;-61
2021/03/08 09:32:52;;;;;;;0.30;0.30;;;;;;;;;;5027645;28;20045;-61
2021/03/08 09:35:19;;;;;;;0.90;0.73;;;;;;;;;;5028535;28;20056;-61
2021/03/08 09:37:46;;;;;;;7.40;1.73;;;;;;;;;;5031361;28;20034;-60
2021/03/08 09:40:15;;;;;;;0.90;0.55;;;;;;;;;;5027546;28;20116;-61
2021/03/08 09:42:41;;;;;;;0.30;0.30;;;;;;;;;;5027103;28;20027;-61
2021/03/08 09:45:20;;;;;;;5.47;2.65;;;;;;;;;;5027480;28;20499;-61
2021/03/08 09:47:47;;;;;;;3.28;2.20;;;;;;;;;;5027759;28;20025;-60
2021/03/08 09:50:17;;;;;;;1.38;1.30;;;;;;;;;;5028901;28;20029;-61
2021/03/08 09:52:45;;;;;;;0.20;0.20;;;;;;;;;;5030907;28;20060;-60
2021/03/08 09:55:15;;;;;;;0.43;0.43;;;;;;;;;;5027676;28;20045;-60
2021/03/08 09:57:42;;;;;;;5.57;1.85;;;;;;;;;;5027392;28;20025;-61
2021/03/08 10:00:11;;;;;;;4.28;2.20;;;;;;;;;;5027323;28;20041;-61
2021/03/08 10:02:38;;;;;;;0.50;0.50;;;;;;;;;;5027360;28;20049;-60
2021/03/08 10:05:05;;;;;;;1.27;1.05;;;;;;;;;;5030076;28;20438;-61
2021/03/08 10:07:31;;;;;;;1.83;1.65;;;;;;;;;;5029009;28;20588;-61
2021/03/08 10:10:08;;;;;;;0.57;0.57;;;;;;;;;;5026861;28;20030;-61
2021/03/08 10:12:34;;;;;;;3.83;1.58;;;;;;;;;;5026148;28;20605;-61
2021/03/08 10:15:01;;;;;;;4.78;2.78;;;;;;;;;;5027018;28;20022;-60
2021/03/08 10:17:27;;;;;;;1.08;1.02;;;;;;;;;;5027062;28;20022;-61
2021/03/08 10:20:00;;;;;;;3.05;1.67;;;;;;;;;;5029051;28;20099;-60
2021/03/08 10:22:36;;;;;;;2.38;2.15;;;;;;;;;;5028719;28;20036;-60
2021/03/08 10:25:18;;;;;;;0.80;0.80;;;;;;;;;;5026998;28;20040;-60
2021/03/08 10:27:44;;;;;;;2.15;1.65;;;;;;;;;;5025132;28;20022;-60
2021/03/08 10:30:14;;;;;;;4.80;1.33;;;;;;;;;;5021964;28;20036;-60
2021/03/08 10:32:41;;;;;;;0.75;0.63;;;;;;;;;;5027575;28;20028;-60
2021/03/08 10:35:08;;;;;;;10.98;2.80;;;;;;;;;;5029586;28;20033;-60
2021/03/08 10:37:35;;;;;;;2.53;1.45;;;;;;;;;;5032521;28;20026;-60
2021/03/08 10:40:01;;;;;;;8.32;3.75;;;;;;;;;;5030523;28;20033;-60
2021/03/08 10:42:28;;;;;;;2.63;1.38;;;;;;;;;;5030425;28;20017;-61
2021/03/08 10:44:54;;;;;;;6.15;3.55;;;;;;;;;;5030553;28;20025;-60
2021/03/08 10:47:20;;;;;;;6.50;4.53;;;;;;;;;;5030912;28;20057;-60
2021/03/08 10:49:47;;;;;;;0.73;0.73;;;;;;;;;;5033924;28;20140;-60
2021/03/08 10:52:13;;;;;;;3.00;2.90;;;;;;;;;;5030784;28;20038;-61
2021/03/08 10:54:39;;;;;;;4.82;1.85;;;;;;;;;;5030813;28;20093;-60
2021/03/08 10:57:06;;;;;;;5.57;2.10;;;;;;;;;;5030536;28;20044;-61
2021/03/08 10:59:32;;;;;;;0.80;0.80;;;;;;;;;;5030260;28;20057;-61
2021/03/08 11:02:09;;;;;;;2.95;2.63;;;;;;;;;;5032081;28;20025;-60
2021/03/08 11:04:35;;;;;;;6.13;3.67;;;;;;;;;;5030798;28;20084;-60
2021/03/08 11:07:01;;;;;;;3.47;2.42;;;;;;;;;;5029845;28;20457;-60
2021/03/08 11:09:29;;;;;;;4.32;3.05;;;;;;;;;;5028539;28;20045;-61
2021/03/08 11:11:55;;;;;;;6.68;3.03;;;;;;;;;;5030290;28;20053;-61
2021/03/08 11:14:21;;;;;;;6.65;2.00;;;;;;;;;;5030711;28;20037;-60
2021/03/08 11:16:52;;;;;;;2.17;1.98;;;;;;;;;;5033840;28;20080;-60
2021/03/08 11:19:22;;;;;;;2.35;2.20;;;;;;;;;;5032143;28;20398;-61
2021/03/08 11:22:11;;;;;;;0.70;0.70;;;;;;;;;;5029388;28;20018;-60
2021/03/08 11:24:46;;;;;;;0.68;0.68;;;;;;;;;;5027892;28;20056;-60
2021/03/08 11:27:14;;;;;;;0.10;0.10;;;;;;;;;;5029239;28;20042;-61
2021/03/08 11:29:41;;;;;;;2.50;2.30;;;;;;;;;;5029516;28;20388;-60
2021/03/08 11:32:09;;;;;;;2.90;0.73;;;;;;;;;;5032014;28;20017;-60
2021/03/08 11:34:39;;;;;;;4.03;1.55;;;;;;;;;;5030668;28;20040;-60
2021/03/08 11:37:12;;;;;;;5.63;1.52;;;;;;;;;;5029675;28;20398;-61
2021/03/08 11:39:39;;;;;;;1.08;0.52;;;;;;;;;;5029513;28;20033;-60
2021/03/08 11:42:05;;;;;;;2.88;1.55;;;;;;;;;;5029623;28;20079;-60
2021/03/08 11:44:31;;;;;;;2.50;1.85;;;;;;;;;;5029152;28;20448;-61
2021/03/08 11:46:58;;;;;;;4.93;1.48;;;;;;;;;;5031632;28;20033;-60
2021/03/08 11:49:24;;;;;;;4.43;1.30;;;;;;;;;;5031969;28;20030;-61
2021/03/08 11:51:50;;;;;;;1.25;1.05;;;;;;;;;;5029447;28;20604;-61
2021/03/08 11:54:16;;;;;;;1.33;1.23;;;;;;;;;;5040181;28;20090;-60
2021/03/08 11:56:43;;;;;;;0.30;0.30;;;;;;;;;;5029457;28;20521;-61
2021/03/08 11:59:10;;;;;;;1.33;1.02;;;;;;;;;;5030903;28;20229;-60
2021/03/08 12:01:36;;;;;;;0.90;0.90;;;;;;;;;;5031519;28;20030;-61
2021/03/08 12:04:02;;;;;;;9.95;1.20;;;;;;;;;;5029207;28;20036;-60
2021/03/08 12:06:28;;;;;;;2.88;1.73;;;;;;;;;;5025689;28;20025;-60
2021/03/08 12:08:54;;;;;;;0.60;0.60;;;;;;;;;;5028654;28;20063;-60
2021/03/08 12:11:21;;;;;;;1.80;1.13;;;;;;;;;;5029329;28;20032;-60
2021/03/08 12:13:47;;;;;;;2.33;1.70;;;;;;;;;;5032612;28;20091;-61
2021/03/08 12:16:13;;;;;;;0.10;0.10;;;;;;;;;;5029032;28;20024;-61
2021/03/08 12:18:39;;;;;;;0.68;0.68;;;;;;;;;;5029184;28;20038;-60
2021/03/08 12:21:05;;;;;;;0.30;0.30;;;;;;;;;;5028803;28;20028;-61
2021/03/08 12:23:31;;;;;;;0.13;0.13;;;;;;;;;;5027813;28;20060;-60
2021/03/08 12:25:57;;;;;;;1.40;1.30;;;;;;;;;;5030709;28;20033;-61
2021/03/08 12:28:24;;;;;;;0.20;0.20;;;;;;;;;;5032249;28;20025;-61
2021/03/08 12:30:50;;;;;;;2.35;1.67;;;;;;;;;;5028351;28;20025;-60
2021/03/08 12:33:16;;;;;;;2.30;1.70;;;;;;;;;;5028171;28;20466;-61
2021/03/08 12:35:42;;;;;;;0.57;0.57;;;;;;;;;;5028358;28;20071;-60
2021/03/08 12:38:08;;;;;;;2.50;1.50;;;;;;;;;;5029852;28;20029;-60
2021/03/08 12:40:34;;;;;;;2.47;1.40;;;;;;;;;;5029659;28;20045;-61
2021/03/08 12:43:01;;;;;;;1.42;1.35;;;;;;;;;;5028307;28;20029;-59
2021/03/08 12:45:27;;;;;;;2.22;1.40;;;;;;;;;;5028114;28;20478;-60
2021/03/08 12:47:53;;;;;;;1.08;1.02;;;;;;;;;;5028609;28;20521;-60
2021/03/08 12:50:19;;;;;;;0.20;0.20;;;;;;;;;;5012987;28;20027;-62
2021/03/08 12:52:45;;;;;;;0.77;0.73;;;;;;;;;;5031224;28;20497;-61
2021/03/08 12:55:12;;;;;;;4.20;1.60;;;;;;;;;;5028315;28;20024;-60
2021/03/08 12:57:38;;;;;;;0.73;0.73;;;;;;;;;;5028148;28;20026;-61
2021/03/08 13:00:08;;;;;;;0.20;0.20;;;;;;;;;;5027679;28;20762;-61
2021/03/08 13:02:34;;;;;;;5.32;3.38;;;;;;;;;;5028072;28;20088;-61
2021/03/08 13:05:00;;;;;;;14.93;3.60;;;;;;;;;;5030401;28;20033;-60
2021/03/08 13:07:26;;;;;;;1.48;1.02;;;;;;;;;;5029062;28;20032;-60
2021/03/08 13:09:52;;;;;;;3.45;2.38;;;;;;;;;;5028025;28;20037;-60
2021/03/08 13:12:19;;;;;;;10.55;4.50;;;;;;;;;;5028171;28;20437;-60
2021/03/08 13:14:46;;;;;;;11.68;4.15;;;;;;;;;;5028063;28;20067;-61
2021/03/08 13:17:12;;;;;;;0.10;0.10;;;;;;;;;;5029492;28;20033;-60
2021/03/08 13:19:38;;;;;;;4.60;3.58;;;;;;;;;;5029990;28;20041;-61
2021/03/08 13:22:06;;;;;;;5.72;1.48;;;;;;;;;;5027670;28;20466;-60
2021/03/08 13:24:32;;;;;;;13.27;5.80;;;;;;;;;;5028051;28;20025;-61
2021/03/08 13:26:58;;;;;;;6.82;3.10;;;;;;;;;;5028047;28;20028;-61
2021/03/08 13:29:24;;;;;;;2.47;1.75;;;;;;;;;;5027909;28;20018;-60
2021/03/08 13:31:50;;;;;;;4.00;2.60;;;;;;;;;;5031243;28;20103;-60
2021/03/08 13:34:16;;;;;;;0.75;0.75;;;;;;;;;;5027668;28;20025;-60
2021/03/08 13:36:43;;;;;;;2.92;1.35;;;;;;;;;;5027804;28;20087;-60
2021/03/08 13:39:10;;;;;;;1.50;0.65;;;;;;;;;;5027386;28;20068;-60
2021/03/08 13:41:36;;;;;;;0.80;0.73;;;;;;;;;;5028566;28;20030;-61
2021/03/08 13:44:03;;;;;;;7.63;4.30;;;;;;;;;;5029250;28;20021;-60
2021/03/08 13:46:29;;;;;;;2.80;2.08;;;;;;;;;;5028203;28;20037;-60
2021/03/08 13:48:55;;;;;;;1.92;1.83;;;;;;;;;;5026818;28;20025;-61
2021/03/08 13:51:21;;;;;;;6.72;3.28;;;;;;;;;;5027012;28;20048;-61
2021/03/08 13:53:48;;;;;;;2.05;1.92;;;;;;;;;;5026773;28;20104;-60
2021/03/08 13:56:14;;;;;;;4.40;3.05;;;;;;;;;;5028772;28;20039;-60
2021/03/08 13:58:40;;;;;;;2.08;1.45;;;;;;;;;;5030534;28;20033;-60
2021/03/08 14:01:06;;;;;;;2.03;1.83;;;;;;;;;;5027358;28;20103;-61
2021/03/08 14:03:32;;;;;;;7.38;3.05;;;;;;;;;;5025313;28;20064;-61
2021/03/08 14:05:58;;;;;;;2.85;2.63;;;;;;;;;;5017382;28;20138;-60
2021/03/08 14:08:24;;;;;;;5.57;4.70;;;;;;;;;;5026591;28;20018;-60
2021/03/08 14:10:50;;;;;;;3.03;1.70;;;;;;;;;;5025814;28;20038;-61
2021/03/08 14:13:17;;;;;;;5.20;3.55;;;;;;;;;;5031193;28;20033;-61
2021/03/08 14:15:43;;;;;;;7.32;1.98;;;;;;;;;;5028773;28;20036;-61
2021/03/08 14:18:09;;;;;;;8.13;4.45;;;;;;;;;;5024776;28;20025;-61
2021/03/08 14:20:35;;;;;;;2.47;2.10;;;;;;;;;;5030318;28;20045;-61
2021/03/08 14:23:01;;;;;;;11.05;4.93;;;;;;;;;;5031906;28;20021;-61
2021/03/08 14:25:27;;;;;;;3.60;2.08;;;;;;;;;;5030867;28;20628;-61
2021/03/08 14:27:53;;;;;;;11.30;5.97;;;;;;;;;;5031700;28;20439;-60
2021/03/08 14:30:20;;;;;;;2.92;2.53;;;;;;;;;;5031697;28;20086;-60
2021/03/08 14:32:46;;;;;;;2.17;2.00;;;;;;;;;;5028999;28;20029;-60
2021/03/08 14:35:12;;;;;;;2.38;2.03;;;;;;;;;;5031440;28;20041;-61
2021/03/08 14:37:38;;;;;;;3.80;1.75;;;;;;;;;;5031363;28;20021;-61
2021/03/08 14:40:05;;;;;;;3.33;1.85;;;;;;;;;;5029668;28;20041;-61
2021/03/08 14:42:34;;;;;;;7.38;4.60;;;;;;;;;;5030198;28;20029;-60
2021/03/08 14:45:00;;;;;;;5.05;1.85;;;;;;;;;;5027042;28;20498;-61
2021/03/08 14:47:27;;;;;;;1.35;1.05;;;;;;;;;;5027677;28;20464;-61
2021/03/08 14:49:53;;;;;;;2.60;1.05;;;;;;;;;;5030189;28;20057;-61
2021/03/08 14:52:19;;;;;;;4.03;1.75;;;;;;;;;;5027698;28;20175;-60
2021/03/08 14:54:45;;;;;;;4.78;2.38;;;;;;;;;;5026196;28;20025;-60
2021/03/08 14:57:11;;;;;;;3.38;2.00;;;;;;;;;;5029328;28;20546;-61
2021/03/08 14:59:37;;;;;;;4.95;2.58;;;;;;;;;;5030789;28;20056;-60
2021/03/08 15:02:03;;;;;;;5.68;3.13;;;;;;;;;;5031477;28;20029;-60
2021/03/08 15:04:29;;;;;;;2.47;0.90;;;;;;;;;;5033243;28;20221;-60
2021/03/08 15:06:56;;;;;;;8.73;4.57;;;;;;;;;;5031787;28;20096;-60
2021/03/08 15:09:22;;;;;;;7.57;4.40;;;;;;;;;;5031870;28;20029;-60
2021/03/08 15:11:48;;;;;;;5.85;4.53;;;;;;;;;;5032013;28;20025;-60
2021/03/08 15:14:15;;;;;;;6.63;3.00;;;;;;;;;;5031769;28;20426;-60
2021/03/08 15:16:41;;;;;;;1.48;1.23;;;;;;;;;;5031241;28;20029;-60
2021/03/08 15:19:08;;;;;;;0.60;0.60;;;;;;;;;;5029631;28;20038;-60
2021/03/08 15:21:34;;;;;;;7.05;3.83;;;;;;;;;;5029764;28;20410;-60
2021/03/08 15:24:01;;;;;;;0.98;0.95;;;;;;;;;;5038404;28;20041;-60
2021/03/08 15:26:27;;;;;;;2.05;1.75;;;;;;;;;;5025111;28;20536;-61
2021/03/08 15:28:53;;;;;;;5.93;3.78;;;;;;;;;;5027849;28;20022;-60
2021/03/08 15:31:19;;;;;;;0.10;0.10;;;;;;;;;;5027287;28;20070;-61
2021/03/08 15:33:45;;;;;;;1.27;1.10;;;;;;;;;;5028424;28;20392;-61
2021/03/08 15:36:11;;;;;;;15.23;7.53;;;;;;;;;;5027212;28;20031;-60
2021/03/08 15:38:37;;;;;;;15.98;7.50;;;;;;;;;;5030159;28;20037;-61
2021/03/08 15:41:03;;;;;;;11.85;6.72;;;;;;;;;;5031823;28;20033;-60
2021/03/08 15:43:30;;;;;;;10.88;3.92;;;;;;;;;;5031013;28;20035;-60
2021/03/08 15:45:56;;;;;;;6.93;4.78;;;;;;;;;;5027973;28;20017;-59
2021/03/08 15:48:22;;;;;;;8.60;5.07;;;;;;;;;;5028027;28;20061;-69
2021/03/08 15:50:48;;;;;;;5.13;3.53;;;;;;;;;;5029654;28;20071;-65
2021/03/08 15:53:16;;;;;;;4.38;3.30;;;;;;;;;;5030921;28;20549;-70
2021/03/08 15:55:42;;;;;;;10.75;3.83;;;;;;;;;;5031977;28;20104;-62
2021/03/08 15:58:08;;;;;;;7.05;3.95;;;;;;;;;;5032732;28;20029;-62
2021/03/08 16:00:34;;;;;;;0.30;0.25;;;;;;;;;;5028916;28;20072;-63
2021/03/08 16:03:00;;;;;;;4.97;3.40;;;;;;;;;;5026553;28;20120;-63
2021/03/08 16:05:26;;;;;;;0.63;0.63;;;;;;;;;;5028413;28;20064;-62
2021/03/08 16:07:52;;;;;;;0.52;0.50;;;;;;;;;;5029710;28;20593;-62
2021/03/08 16:10:19;;;;;;;6.32;3.20;;;;;;;;;;5040000;28;20025;-62
2021/03/08 16:12:45;;;;;;;11.23;4.45;;;;;;;;;;5026772;28;20179;-62
2021/03/08 16:15:11;;;;;;;5.90;2.58;;;;;;;;;;5026076;28;20036;-61
2021/03/08 16:17:37;;;;;;;3.58;3.22;;;;;;;;;;5026918;28;20034;-63
2021/03/08 16:20:04;;;;;;;2.40;2.20;;;;;;;;;;5028584;28;20055;-61
2021/03/08 16:22:30;;;;;;;14.70;5.78;;;;;;;;;;5027959;28;20038;-61
2021/03/08 16:24:56;;;;;;;1.27;0.90;;;;;;;;;;5026727;28;20028;-61
2021/03/08 16:27:22;;;;;;;2.70;2.47;;;;;;;;;;5026569;28;20029;-63
2021/03/08 16:29:48;;;;;;;7.50;4.00;;;;;;;;;;5026375;28;20032;-60
2021/03/08 16:32:15;;;;;;;0.17;0.17;;;;;;;;;;5027187;28;20018;-62
2021/03/08 16:34:41;;;;;;;4.22;3.80;;;;;;;;;;5027347;28;20125;-63
2021/03/08 16:37:07;;;;;;;2.72;2.10;;;;;;;;;;5028304;28;20068;-62
2021/03/08 16:39:33;;;;;;;4.43;3.63;;;;;;;;;;5028611;28;20030;-62
2021/03/08 16:41:59;;;;;;;5.80;3.67;;;;;;;;;;5029041;28;20064;-62
2021/03/08 16:44:25;;;;;;;9.00;3.78;;;;;;;;;;5028436;28;20128;-63
2021/03/08 16:46:54;;;;;;;1.80;1.70;;;;;;;;;;5028004;28;20021;-62
2021/03/08 16:49:21;;;;;;;3.20;2.92;;;;;;;;;;5028352;28;20040;-61
2021/03/08 16:51:47;;;;;;;8.18;1.83;;;;;;;;;;5028452;28;20040;-62
2021/03/08 16:54:13;;;;;;;3.55;3.22;;;;;;;;;;5028604;28;20511;-63
2021/03/08 16:56:39;;;;;;;1.05;1.00;;;;;;;;;;5028166;28;20022;-62
2021/03/08 16:59:05;;;;;;;8.80;1.70;;;;;;;;;;5027388;28;20052;-62
2021/03/08 17:01:31;;;;;;;3.00;1.60;;;;;;;;;;5026804;28;20029;-62
2021/03/08 17:03:57;;;;;;;0.40;0.40;;;;;;;;;;5026536;28;20108;-63
2021/03/08 17:06:24;;;;;;;3.88;3.47;;;;;;;;;;5043335;28;20406;-62
2021/03/08 17:08:50;;;;;;;0.77;0.77;;;;;;;;;;5026984;28;20048;-62
2021/03/08 17:11:16;;;;;;;0.10;0.10;;;;;;;;;;5029720;28;20036;-63
2021/03/08 17:13:42;;;;;;;0.50;0.50;;;;;;;;;;5030611;28;20045;-61
2021/03/08 17:16:08;;;;;;;1.98;0.68;;;;;;;;;;5027756;28;20029;-62
2021/03/08 17:18:34;;;;;;;2.50;2.30;;;;;;;;;;5028712;28;20439;-62
2021/03/08 17:21:00;;;;;;;0.20;0.20;;;;;;;;;;5029490;28;20113;-62
2021/03/08 17:23:26;;;;;;;0.57;0.57;;;;;;;;;;5029723;28;20030;-62
2021/03/08 17:25:53;;;;;;;8.95;2.88;;;;;;;;;;5029353;28;20435;-60
2021/03/08 17:28:19;;;;;;;2.30;2.15;;;;;;;;;;5030603;28;20029;-63
2021/03/08 17:30:45;;;;;;;1.67;1.55;;;;;;;;;;5030902;28;20025;-62
2021/03/08 17:33:11;;;;;;;0.60;0.60;;;;;;;;;;5029969;28;20045;-62
2021/03/08 17:35:37;;;;;;;0.20;0.20;;;;;;;;;;5029084;28;20028;-62
2021/03/08 17:38:03;;;;;;;6.35;3.58;;;;;;;;;;5032827;28;20020;-62
2021/03/08 17:40:30;;;;;;;0.13;0.13;;;;;;;;;;5032661;28;20037;-61
2021/03/08 17:42:56;;;;;;;2.35;0.95;;;;;;;;;;5031383;28;20053;-61
2021/03/08 17:45:23;;;;;;;0.17;0.17;;;;;;;;;;5031306;28;20486;-61
2021/03/08 17:47:49;;;;;;;2.80;2.45;;;;;;;;;;5032633;28;20501;-62
2021/03/08 17:50:16;;;;;;;2.25;2.13;;;;;;;;;;5032943;28;20128;-63
2021/03/08 17:52:42;;;;;;;1.30;1.30;;;;;;;;;;5031141;28;20025;-63
2021/03/08 17:55:13;;;;;;;0.38;0.28;;;;;;;;;;5029266;28;20037;-63
2021/03/08 17:57:40;;;;;;;4.05;2.72;;;;;;;;;;5025982;28;20036;-63
2021/03/08 18:00:07;;;;;;;0.30;0.30;;;;;;;;;;5026959;28;20050;-63
2021/03/08 18:02:35;;;;;;;0.20;0.20;;;;;;;;;;5024166;28;20026;-63
2021/03/08 18:05:01;;;;;;;0.20;0.20;;;;;;;;;;5025709;28;20021;-62
2021/03/08 18:07:28;;;;;;;0.90;0.77;;;;;;;;;;5028103;28;20029;-63
2021/03/08 18:09:54;;;;;;;0.68;0.68;;;;;;;;;;5026404;28;20017;-59
2021/03/08 18:12:20;;;;;;;6.20;5.82;;;;;;;;;;5026627;28;20029;-61
2021/03/08 18:14:46;;;;;;;1.88;1.65;;;;;;;;;;5027280;28;20083;-62
2021/03/08 18:17:12;;;;;;;3.72;2.85;;;;;;;;;;5026897;28;20048;-62
2021/03/08 18:19:38;;;;;;;0.20;0.20;;;;;;;;;;5028062;28;20449;-63
2021/03/08 18:22:05;;;;;;;0.10;0.10;;;;;;;;;;5024837;28;20442;-62
2021/03/08 18:24:31;;;;;;;0.30;0.30;;;;;;;;;;5025709;28;20108;-62
2021/03/08 18:26:57;;;;;;;5.43;1.38;;;;;;;;;;5025455;28;20037;-63
2021/03/08 18:29:23;;;;;;;0.20;0.20;;;;;;;;;;5025757;28;20033;-64
2021/03/08 18:31:50;;;;;;;0.20;0.20;;;;;;;;;;5027871;28;20037;-63
2021/03/08 18:34:16;;;;;;;0.20;0.20;;;;;;;;;;5026685;28;20033;-64
2021/03/08 18:36:42;;;;;;;0.25;0.25;;;;;;;;;;5024498;28;20021;-62
2021/03/08 18:39:08;;;;;;;0.20;0.20;;;;;;;;;;5024164;28;20042;-64
2021/03/08 18:41:35;;;;;;;0.20;0.20;;;;;;;;;;5024510;28;20399;-64
2021/03/08 18:44:01;;;;;;;0.20;0.20;;;;;;;;;;5026622;28;20025;-64
2021/03/08 18:46:27;;;;;;;2.42;2.22;;;;;;;;;;5027267;28;20072;-63
2021/03/08 18:48:54;;;;;;;0.10;0.10;;;;;;;;;;5022355;28;20475;-63
2021/03/08 18:51:21;;;;;;;0.10;0.10;;;;;;;;;;5027147;28;20057;-64
2021/03/08 18:53:47;;;;;;;0.20;0.20;;;;;;;;;;5026435;28;20017;-63
2021/03/08 18:56:13;;;;;;;0.47;0.47;;;;;;;;;;5029259;28;20116;-63
2021/03/08 18:58:39;;;;;;;0.10;0.10;;;;;;;;;;5032843;28;20033;-65
2021/03/08 19:01:05;;;;;;;0.20;0.20;;;;;;;;;;5029676;28;20025;-64
2021/03/08 19:03:31;;;;;;;0.15;0.15;;;;;;;;;;5029483;28;20394;-65
2021/03/08 19:05:58;;;;;;;0.20;0.20;;;;;;;;;;5029035;28;20621;-64
2021/03/08 19:08:24;;;;;;;0.20;0.20;;;;;;;;;;5029795;28;20029;-62
2021/03/08 19:10:50;;;;;;;0.13;0.13;;;;;;;;;;5033563;28;20522;-63
2021/03/08 19:13:17;;;;;;;0.10;0.10;;;;;;;;;;5026334;28;20034;-64
2021/03/08 19:15:43;;;;;;;0.93;0.93;;;;;;;;;;5022135;28;20037;-65
2021/03/08 19:18:09;;;;;;;0.10;0.10;;;;;;;;;;5021790;28;20018;-64
2021/03/08 19:20:35;;;;;;;0.10;0.10;;;;;;;;;;5024601;28;20073;-64
2021/03/08 19:23:01;;;;;;;0.30;0.30;;;;;;;;;;5031096;28;20716;-64
2021/03/08 19:25:27;;;;;;;0.20;0.20;;;;;;;;;;5031358;28;20033;-64
2021/03/08 19:27:53;;;;;;;0.25;0.25;;;;;;;;;;5028450;28;20083;-64
2021/03/08 19:30:21;;;;;;;0.20;0.20;;;;;;;;;;5030429;28;20029;-65
2021/03/08 19:32:47;;;;;;;0.20;0.20;;;;;;;;;;5030833;28;20060;-65
2021/03/08 19:35:13;;;;;;;0.13;0.13;;;;;;;;;;5030330;28;20041;-61
2021/03/08 19:37:39;;;;;;;0.10;0.10;;;;;;;;;;5032205;28;20006;-63
2021/03/08 19:40:07;;;;;;;0.20;0.20;;;;;;;;;;5030670;28;20033;-64
2021/03/08 19:42:33;;;;;;;0.10;0.10;;;;;;;;;;5029115;28;20025;-64
2021/03/08 19:44:59;;;;;;;0.20;0.20;;;;;;;;;;5029088;28;20453;-64
2021/03/08 19:47:26;;;;;;;0.20;0.20;;;;;;;;;;5029625;28;20026;-61
2021/03/08 19:49:52;;;;;;;0.10;0.10;;;;;;;;;;5026485;28;20049;-63
2021/03/08 19:52:18;;;;;;;0.20;0.20;;;;;;;;;;5026114;28;20032;-64
2021/03/08 19:54:44;;;;;;;0.20;0.20;;;;;;;;;;5028197;28;20030;-63
2021/03/08 19:57:10;;;;;;;0.20;0.20;;;;;;;;;;5028001;28;20037;-63
2021/03/08 19:59:36;;;;;;;0.30;0.30;;;;;;;;;;5028161;28;20060;-63
2021/03/08 20:02:02;;;;;;;0.20;0.20;;;;;;;;;;5028642;28;20454;-63
2021/03/08 20:04:28;;;;;;;0.75;0.75;;;;;;;;;;5026254;28;20033;-64
2021/03/08 20:06:55;;;;;;;0.28;0.28;;;;;;;;;;5040345;28;20420;-63
2021/03/08 20:09:21;;;;;;;0.20;0.20;;;;;;;;;;5027926;28;20044;-64
2021/03/08 20:11:47;;;;;;;0.20;0.20;;;;;;;;;;5028370;28;20027;-64
2021/03/08 20:14:13;;;;;;;0.20;0.20;;;;;;;;;;5027908;28;20521;-63
2021/03/08 20:16:39;;;;;;;0.22;0.22;;;;;;;;;;5029593;28;20029;-62
2021/03/08 20:19:05;;;;;;;0.20;0.20;;;;;;;;;;5027621;28;20025;-64
2021/03/08 20:21:31;;;;;;;2.65;0.90;;;;;;;;;;5027390;28;20029;-63
2021/03/08 20:23:58;;;;;;;0.43;0.43;;;;;;;;;;5027798;28;20418;-64
2021/03/08 20:26:24;;;;;;;3.08;2.85;;;;;;;;;;5028281;28;20101;-62
2021/03/08 20:28:51;;;;;;;0.20;0.20;;;;;;;;;;5028457;28;21519;-63
2021/03/08 20:31:18;;;;;;;0.32;0.32;;;;;;;;;;5028081;28;20034;-62
2021/03/08 20:33:44;;;;;;;0.20;0.20;;;;;;;;;;5028721;28;20026;-63
2021/03/08 20:36:10;;;;;;;0.25;0.25;;;;;;;;;;5035080;28;20056;-64
2021/03/08 20:38:36;;;;;;;0.20;0.20;;;;;;;;;;5027755;28;20026;-63
2021/03/08 20:41:03;;;;;;;0.30;0.30;;;;;;;;;;5028331;28;20030;-63
2021/03/08 20:43:29;;;;;;;0.20;0.20;;;;;;;;;;5027923;28;20109;-63
2021/03/08 20:45:55;;;;;;;0.20;0.20;;;;;;;;;;5027492;28;20029;-62